createdAt,value
2022-11-30T00:01:23.566Z,93866.50
2022-11-30T00:03:54.052Z,93813.44
2022-11-30T00:06:23.456Z,93864.84
2022-11-30T00:08:59.321Z,93833.81
2022-11-30T00:11:27.438Z,93877.81
2022-11-30T00:13:56.207Z,93834.13
2022-11-30T00:16:23.055Z,93850.97
2022-11-30T00:18:49.685Z,93837.03
2022-11-30T00:21:17.691Z,93846.75
2022-11-30T00:23:46.381Z,93869.41
2022-11-30T00:26:16.463Z,93872.28
2022-11-30T00:28:44.126Z,93834.28
2022-11-30T00:31:13.017Z,93877.78
2022-11-30T00:33:40.311Z,93869.88
2022-11-30T00:36:18.372Z,93866.78
2022-11-30T00:38:45.700Z,93837.03
2022-11-30T00:41:12.775Z,93871.34
2022-11-30T00:43:44.079Z,93871.03
2022-11-30T00:46:10.806Z,93873.94
2022-11-30T00:48:38.760Z,93879.09
2022-11-30T00:51:06.231Z,93865.50
2022-11-30T00:53:34.138Z,93881.69
2022-11-30T00:56:00.610Z,93848.06
2022-11-30T00:58:27.048Z,93864.22
2022-11-30T01:00:58.474Z,93857.41
2022-11-30T01:03:24.931Z,93878.78
2022-11-30T01:05:51.378Z,93830.28
2022-11-30T01:08:25.549Z,93848.06
2022-11-30T01:11:05.334Z,93863.59
2022-11-30T01:13:32.792Z,93861.00
2022-11-30T01:15:59.552Z,93868.44
2022-11-30T01:18:26.029Z,93889.16
2022-11-30T01:20:52.437Z,93895.91
2022-11-30T01:23:18.968Z,93880.41
2022-11-30T01:25:54.010Z,93832.34
2022-11-30T01:28:20.430Z,93872.16
2022-11-30T01:30:59.197Z,93855.81
2022-11-30T01:33:25.816Z,93868.09
2022-11-30T01:36:17.213Z,93898.34
2022-11-30T01:38:59.884Z,93878.44
2022-11-30T01:41:28.958Z,93902.09
2022-11-30T01:44:19.558Z,93900.78
2022-11-30T01:46:54.291Z,93899.47
2022-11-30T01:49:26.638Z,93911.13
2022-11-30T01:52:02.661Z,93882.97
2022-11-30T01:54:46.082Z,93885.88
2022-11-30T01:57:35.819Z,93904.69
2022-11-30T02:00:13.082Z,93912.44
2022-11-30T02:02:42.410Z,93908.84
2022-11-30T02:05:10.639Z,93902.72
2022-11-30T02:07:37.532Z,93889.47
2022-11-30T02:10:04.494Z,93908.84
2022-11-30T02:12:53.199Z,93903.38
2022-11-30T02:15:31.548Z,93884.28
2022-11-30T02:18:12.659Z,93868.09
2022-11-30T02:20:49.916Z,93881.53
2022-11-30T02:24:09.633Z,93905.31
2022-11-30T02:26:54.862Z,93907.56
2022-11-30T02:29:38.051Z,93879.06
2022-11-30T02:32:12.221Z,93903.97
2022-11-30T02:34:41.431Z,93873.25
2022-11-30T02:37:18.074Z,93914.97
2022-11-30T02:39:44.893Z,93880.69
2022-11-30T02:42:14.886Z,93914.31
2022-11-30T02:44:50.259Z,93867.41
2022-11-30T02:47:42.826Z,93879.06
2022-11-30T02:50:15.690Z,93846.06
2022-11-30T02:52:42.327Z,93886.16
2022-11-30T02:55:11.287Z,93886.78
2022-11-30T02:57:37.765Z,93872.91
2022-11-30T03:00:12.203Z,93878.72
2022-11-30T03:02:39.755Z,93878.84
2022-11-30T03:05:07.483Z,93908.16
2022-11-30T03:07:40.292Z,93844.72
2022-11-30T03:10:07.564Z,93858.59
2022-11-30T03:12:34.029Z,93890.06
2022-11-30T03:15:00.505Z,93861.53
2022-11-30T03:17:26.979Z,93867.00
2022-11-30T03:20:07.232Z,93909.47
2022-11-30T03:22:34.046Z,93880.78
2022-11-30T03:25:00.478Z,93913.66
2022-11-30T03:27:27.919Z,93885.75
2022-11-30T03:29:54.542Z,93916.50
2022-11-30T03:32:20.959Z,93923.63
2022-11-30T03:34:47.717Z,93876.00
2022-11-30T03:37:14.504Z,93875.38
2022-11-30T03:39:51.407Z,93917.16
2022-11-30T03:42:21.469Z,93909.00
2022-11-30T03:44:49.127Z,93900.88
2022-11-30T03:47:15.730Z,93908.97
2022-11-30T03:49:48.335Z,93908.00
2022-11-30T03:52:14.766Z,93855.50
2022-11-30T03:54:52.616Z,93911.56
2022-11-30T03:57:19.060Z,93919.97
2022-11-30T03:59:45.490Z,93898.28
2022-11-30T04:02:13.964Z,93904.44
2022-11-30T04:04:40.404Z,93907.00
2022-11-30T04:07:06.844Z,93888.88
2022-11-30T04:09:33.263Z,93885.25
2022-11-30T04:11:59.794Z,93892.13
2022-11-30T04:14:36.511Z,93920.56
2022-11-30T04:17:03.206Z,93891.78
2022-11-30T04:19:46.013Z,93897.28
2022-11-30T04:22:12.415Z,93883.53
2022-11-30T04:24:42.058Z,93911.56
2022-11-30T04:27:08.486Z,93896.50
2022-11-30T04:29:34.890Z,93862.69
2022-11-30T04:32:01.329Z,93898.91
2022-11-30T04:34:28.592Z,93887.38
2022-11-30T04:37:00.125Z,93863.53
2022-11-30T04:39:26.933Z,93886.84
2022-11-30T04:41:53.387Z,93902.06
2022-11-30T04:44:26.066Z,93924.09
2022-11-30T04:46:52.825Z,93926.22
2022-11-30T04:49:26.311Z,93928.38
2022-11-30T04:51:52.732Z,93912.78
2022-11-30T04:54:19.182Z,93927.69
2022-11-30T04:56:45.621Z,93924.63
2022-11-30T04:59:12.026Z,93942.56
2022-11-30T05:01:40.615Z,93894.38
2022-11-30T05:04:07.078Z,93911.16
2022-11-30T05:06:34.592Z,93904.69
2022-11-30T05:09:01.056Z,93854.63
2022-11-30T05:11:29.855Z,93917.69
2022-11-30T05:14:01.403Z,93930.31
2022-11-30T05:16:47.447Z,93910.66
2022-11-30T05:19:18.075Z,93916.97
2022-11-30T05:22:21.664Z,93955.84
2022-11-30T05:24:50.217Z,93917.97
2022-11-30T05:27:22.232Z,93910.34
2022-11-30T05:29:50.125Z,93893.44
2022-11-30T05:32:29.126Z,93928.38
2022-11-30T05:34:58.952Z,93918.25
2022-11-30T05:37:34.621Z,93940.94
2022-11-30T05:40:07.766Z,93918.59
2022-11-30T05:42:34.250Z,93947.41
2022-11-30T05:45:00.664Z,93874.84
2022-11-30T05:47:31.300Z,93923.13
2022-11-30T05:49:57.711Z,93939.00
2022-11-30T05:52:24.236Z,93952.56
2022-11-30T05:54:50.655Z,93913.75
2022-11-30T05:57:17.089Z,93934.84
2022-11-30T06:00:00.959Z,93944.56
2022-11-30T06:02:34.126Z,93931.53
2022-11-30T06:05:08.145Z,93922.50
2022-11-30T06:07:35.740Z,93912.91
2022-11-30T06:10:02.262Z,93938.31
2022-11-30T06:12:28.682Z,93920.81
2022-11-30T06:14:55.111Z,93941.56
2022-11-30T06:17:21.539Z,93930.59
2022-11-30T06:19:48.052Z,93955.53
2022-11-30T06:22:14.566Z,93956.16
2022-11-30T06:24:41.023Z,93877.16
2022-11-30T06:27:07.468Z,93905.31
2022-11-30T06:29:33.926Z,93942.00
2022-11-30T06:32:00.455Z,93933.16
2022-11-30T06:34:26.895Z,93903.69
2022-11-30T06:36:53.379Z,93925.97
2022-11-30T06:39:36.660Z,93929.94
2022-11-30T06:42:06.355Z,93964.84
2022-11-30T06:44:32.947Z,93908.47
2022-11-30T06:46:59.390Z,93774.09
2022-11-30T06:49:25.870Z,93923.44
2022-11-30T06:52:00.187Z,93962.53
2022-11-30T06:54:26.587Z,93934.03
2022-11-30T06:56:52.996Z,93947.84
2022-11-30T06:59:22.584Z,93946.09
2022-11-30T07:01:48.998Z,93940.63
2022-11-30T07:04:15.502Z,93929.22
2022-11-30T07:06:42.027Z,93961.53
2022-11-30T07:09:10.334Z,93921.69
2022-11-30T07:11:36.722Z,93872.13
2022-11-30T07:14:03.161Z,93888.38
2022-11-30T07:16:29.636Z,93898.72
2022-11-30T07:18:56.086Z,93942.38
2022-11-30T07:21:27.496Z,93936.81
2022-11-30T07:24:12.455Z,93953.00
2022-11-30T07:26:38.885Z,93952.41
2022-11-30T07:29:05.438Z,93947.53
2022-11-30T07:31:35.943Z,93971.03
2022-11-30T07:34:07.976Z,93928.41
2022-11-30T07:36:35.494Z,93949.13
2022-11-30T07:39:02.720Z,93949.81
2022-11-30T07:41:29.244Z,93966.69
2022-11-30T07:43:55.674Z,93961.28
2022-11-30T07:46:22.169Z,93986.13
2022-11-30T07:48:50.788Z,93977.44
2022-11-30T07:51:19.858Z,93988.47
2022-11-30T07:53:48.568Z,93989.75
2022-11-30T07:56:19.029Z,93975.84
2022-11-30T07:58:46.295Z,93936.41
2022-11-30T08:01:15.563Z,93968.03
2022-11-30T08:03:42.505Z,93958.00
2022-11-30T08:06:14.238Z,93967.16
2022-11-30T08:08:43.435Z,93971.56
2022-11-30T08:11:12.375Z,93969.94
2022-11-30T08:13:39.064Z,93955.34
2022-11-30T08:16:08.387Z,93990.44
2022-11-30T08:18:35.085Z,93968.75
2022-11-30T08:21:12.741Z,93994.97
2022-11-30T08:23:42.032Z,93997.50
2022-11-30T08:26:12.750Z,93998.25
2022-11-30T08:28:40.187Z,93950.91
2022-11-30T08:31:22.584Z,93962.44
2022-11-30T08:33:49.930Z,93974.13
2022-11-30T08:36:26.321Z,93958.00
2022-11-30T08:38:52.840Z,93993.25
2022-11-30T08:41:21.472Z,94000.28
2022-11-30T08:43:50.566Z,93996.91
2022-11-30T08:49:21.137Z,93970.81
2022-11-30T08:57:32.029Z,93980.84
2022-11-30T08:59:58.453Z,93965.44
2022-11-30T09:02:24.947Z,94008.28
2022-11-30T09:04:53.608Z,93981.59
2022-11-30T09:07:20.191Z,94011.22
2022-11-30T09:09:46.808Z,93998.13
2022-11-30T09:12:14.514Z,94013.72
2022-11-30T09:14:43.003Z,93970.81
2022-11-30T09:17:09.523Z,93997.34
2022-11-30T09:19:36.015Z,94007.97
2022-11-30T09:22:02.461Z,93988.16
2022-11-30T09:24:28.890Z,94024.28
2022-11-30T09:26:57.214Z,93996.31
2022-11-30T09:29:24.209Z,93972.59
2022-11-30T09:31:50.648Z,93992.47
2022-11-30T09:34:17.134Z,93967.28
2022-11-30T09:36:43.677Z,94011.66
2022-11-30T09:39:12.737Z,93988.44
2022-11-30T09:42:03.638Z,94025.38
2022-11-30T09:44:55.897Z,94028.94
2022-11-30T09:47:52.810Z,94036.75
2022-11-30T09:50:22.935Z,94024.13
2022-11-30T09:52:56.530Z,94027.44
2022-11-30T09:55:43.737Z,94023.47
2022-11-30T09:58:27.639Z,93996.19
2022-11-30T10:00:54.075Z,94007.59
2022-11-30T10:03:23.403Z,94007.97
2022-11-30T10:06:11.095Z,94013.44
2022-11-30T10:08:50.363Z,94012.81
2022-11-30T10:11:32.578Z,94007.66
2022-11-30T10:14:20.580Z,93985.34
2022-11-30T10:17:05.382Z,94010.78
2022-11-30T10:19:40.951Z,94006.81
2022-11-30T10:22:28.764Z,94003.69
2022-11-30T10:25:19.463Z,94008.56
2022-11-30T10:27:54.347Z,94002.34
2022-11-30T10:30:23.949Z,93984.72
2022-11-30T10:32:55.867Z,94006.19
2022-11-30T10:35:41.931Z,94015.75
2022-11-30T10:38:23.549Z,93991.13
2022-11-30T10:41:01.484Z,94007.66
2022-11-30T10:44:25.781Z,94008.72
2022-11-30T10:47:00.544Z,93984.34
2022-11-30T10:49:29.509Z,93978.59
2022-11-30T10:52:03.150Z,93965.81
2022-11-30T10:54:31.685Z,93977.28
2022-11-30T10:57:01.058Z,93997.81
2022-11-30T10:59:38.710Z,93994.69
2022-11-30T11:02:42.254Z,93996.75
2022-11-30T11:05:30.104Z,93961.81
2022-11-30T11:08:17.025Z,94003.97
2022-11-30T11:10:47.256Z,93996.88
2022-11-30T11:13:38.093Z,93988.16
2022-11-30T11:16:07.127Z,93991.19
2022-11-30T11:18:35.140Z,93969.63
2022-11-30T11:21:22.076Z,93999.38
2022-11-30T11:23:52.696Z,93994.91
2022-11-30T11:26:30.350Z,93994.22
2022-11-30T11:29:01.134Z,94000.66
2022-11-30T11:31:49.071Z,94001.44
2022-11-30T11:34:24.708Z,93998.09
2022-11-30T11:37:20.186Z,93960.78
2022-11-30T11:40:17.380Z,93973.75
2022-11-30T11:42:50.975Z,93979.66
2022-11-30T11:45:30.696Z,93986.88
2022-11-30T11:48:28.712Z,93993.50
2022-11-30T11:51:10.318Z,94002.94
2022-11-30T11:53:46.288Z,93997.50
2022-11-30T11:56:32.035Z,93988.00
2022-11-30T11:59:03.958Z,93966.34
2022-11-30T12:01:40.898Z,93966.28
2022-11-30T12:04:35.675Z,93997.91
2022-11-30T12:07:17.953Z,93987.16
2022-11-30T12:09:57.122Z,93993.34
2022-11-30T12:12:23.684Z,93979.03
2022-11-30T12:14:50.211Z,93985.63
2022-11-30T12:17:29.523Z,93989.16
2022-11-30T12:20:14.346Z,93980.56
2022-11-30T12:22:58.477Z,93972.72
2022-11-30T12:25:27.777Z,93982.19
2022-11-30T12:28:07.386Z,93987.91
2022-11-30T12:30:59.261Z,93986.34
2022-11-30T12:34:03.308Z,93990.81
2022-11-30T12:36:42.010Z,93981.44
2022-11-30T12:39:15.037Z,93963.53
2022-11-30T12:41:51.875Z,93967.41
2022-11-30T12:44:42.496Z,93968.59
2022-11-30T12:47:46.866Z,93991.59
2022-11-30T12:50:24.413Z,93969.69
2022-11-30T12:53:15.995Z,93985.59
2022-11-30T12:55:50.372Z,93990.41
2022-11-30T12:59:12.359Z,93986.84
2022-11-30T13:02:17.943Z,93970.09
2022-11-30T13:04:53.369Z,93995.84
2022-11-30T13:07:32.657Z,93981.56
2022-11-30T13:10:38.755Z,93996.22
2022-11-30T13:13:06.282Z,93970.09
2022-11-30T13:15:35.120Z,93993.75
2022-11-30T13:18:03.288Z,93948.72
2022-11-30T13:20:42.463Z,93985.56
2022-11-30T13:23:31.747Z,93989.69
2022-11-30T13:26:10.053Z,93979.19
2022-11-30T13:28:42.797Z,93984.19
2022-11-30T13:31:27.054Z,93963.47
2022-11-30T13:34:02.147Z,93965.84
2022-11-30T13:36:43.521Z,93976.22
2022-11-30T13:39:49.649Z,93987.47
2022-11-30T13:42:31.433Z,93978.91
2022-11-30T13:45:24.150Z,93985.53
2022-11-30T13:47:53.109Z,93971.34
2022-11-30T13:50:31.582Z,93985.53
2022-11-30T13:53:22.095Z,93985.22
2022-11-30T13:55:48.443Z,93985.53
2022-11-30T13:58:17.148Z,93980.38
2022-11-30T14:01:31.614Z,93991.00
2022-11-30T14:04:30.826Z,93988.75
2022-11-30T14:07:01.730Z,93985.47
2022-11-30T14:09:47.845Z,93990.69
2022-11-30T14:12:45.089Z,93989.06
2022-11-30T14:15:31.826Z,93989.22
2022-11-30T14:17:58.716Z,93989.53
2022-11-30T14:20:37.809Z,93992.16
2022-11-30T14:23:18.118Z,93997.28
2022-11-30T14:26:07.660Z,93977.31
2022-11-30T14:29:08.157Z,93996.75
2022-11-30T14:31:50.752Z,93957.72
2022-11-30T14:34:35.223Z,93987.34
2022-11-30T14:37:25.724Z,94000.97
2022-11-30T14:40:01.541Z,94010.47
2022-11-30T14:42:32.179Z,94009.28
2022-11-30T14:45:02.758Z,94002.94
2022-11-30T14:47:35.242Z,94002.50
2022-11-30T14:50:09.697Z,94008.16
2022-11-30T14:52:53.863Z,94012.44
2022-11-30T14:55:44.348Z,94013.41
2022-11-30T14:58:48.082Z,94012.97
2022-11-30T15:01:26.218Z,93974.34
2022-11-30T15:04:10.601Z,94007.38
2022-11-30T15:06:40.227Z,93989.25
2022-11-30T15:09:22.930Z,93982.44
2022-11-30T15:11:53.938Z,94005.31
2022-11-30T15:14:21.884Z,93979.81
2022-11-30T15:16:58.173Z,94002.06
2022-11-30T15:19:31.974Z,94007.97
2022-11-30T15:22:05.097Z,93984.50
2022-11-30T15:24:38.169Z,93995.28
2022-11-30T15:27:14.509Z,93976.69
2022-11-30T15:30:03.038Z,94003.91
2022-11-30T15:32:46.940Z,94002.66
2022-11-30T15:35:23.971Z,93979.81
2022-11-30T15:37:51.696Z,94006.06
2022-11-30T15:40:36.750Z,94008.03
2022-11-30T15:43:04.965Z,93993.38
2022-11-30T15:45:36.260Z,93978.47
2022-11-30T15:48:30.249Z,94018.00
2022-11-30T15:51:01.434Z,94014.00
2022-11-30T15:53:47.274Z,93986.88
2022-11-30T15:56:28.397Z,94022.41
2022-11-30T15:59:34.058Z,94017.84
2022-11-30T16:02:14.135Z,94018.34
2022-11-30T16:05:23.673Z,94018.88
2022-11-30T16:08:03.384Z,94023.00
2022-11-30T16:10:36.220Z,94018.88
2022-11-30T16:13:05.232Z,94013.19
2022-11-30T16:15:36.385Z,94032.66
2022-11-30T16:18:24.755Z,94018.88
2022-11-30T16:20:57.425Z,93978.16
2022-11-30T16:23:23.927Z,94010.28
2022-11-30T16:25:50.843Z,94016.50
2022-11-30T16:28:19.145Z,94030.59
2022-11-30T16:30:46.180Z,94007.91
2022-11-30T16:33:19.133Z,94028.34
2022-11-30T16:35:55.691Z,94029.50
2022-11-30T16:38:23.599Z,94018.41
2022-11-30T16:40:50.131Z,94022.34
2022-11-30T16:43:20.723Z,94025.66
2022-11-30T16:45:47.344Z,93992.44
2022-11-30T16:48:16.634Z,94021.13
2022-11-30T16:50:44.620Z,94029.63
2022-11-30T16:53:28.684Z,94017.38
2022-11-30T16:55:55.429Z,94019.00
2022-11-30T16:58:22.213Z,94022.19
2022-11-30T17:00:48.826Z,94021.19
2022-11-30T17:03:23.706Z,93998.66
2022-11-30T17:06:00.436Z,94027.22
2022-11-30T17:08:28.971Z,94021.16
2022-11-30T17:10:55.431Z,94004.41
2022-11-30T17:13:24.011Z,94018.50
2022-11-30T17:15:52.543Z,94031.50
2022-11-30T17:18:29.994Z,94007.06
2022-11-30T17:20:58.606Z,94018.91
2022-11-30T17:23:26.284Z,94012.97
2022-11-30T17:25:56.124Z,94013.19
2022-11-30T17:28:22.528Z,94001.53
2022-11-30T17:31:04.833Z,94023.66
2022-11-30T17:33:34.002Z,94016.03
2022-11-30T17:36:05.279Z,94032.56
2022-11-30T17:38:45.386Z,94040.66
2022-11-30T17:41:19.604Z,94038.03
2022-11-30T17:43:46.917Z,94017.50
2022-11-30T17:46:15.865Z,94028.44
2022-11-30T17:48:43.696Z,94042.41
2022-11-30T17:51:11.175Z,94037.72
2022-11-30T17:53:39.145Z,94020.31
2022-11-30T17:56:08.470Z,94049.06
2022-11-30T17:58:43.477Z,94039.31
2022-11-30T18:01:19.826Z,94021.09
2022-11-30T18:03:47.003Z,94050.63
2022-11-30T18:06:14.469Z,94026.94
2022-11-30T18:08:40.956Z,94048.78
2022-11-30T18:11:15.647Z,94030.63
2022-11-30T18:13:44.233Z,94054.22
2022-11-30T18:16:16.305Z,94057.78
2022-11-30T18:18:47.784Z,94035.44
2022-11-30T18:21:18.518Z,94030.47
2022-11-30T18:23:45.614Z,94039.69
2022-11-30T18:26:15.841Z,94050.34
2022-11-30T18:28:42.876Z,94051.56
2022-11-30T18:31:10.498Z,94048.78
2022-11-30T18:33:38.253Z,94040.50
2022-11-30T18:36:08.792Z,94042.34
2022-11-30T18:38:38.680Z,94040.97
2022-11-30T18:41:25.873Z,94037.16
2022-11-30T18:43:55.920Z,94044.19
2022-11-30T18:46:22.583Z,94047.75
2022-11-30T18:48:50.586Z,94066.63
2022-11-30T18:51:24.651Z,94016.03
2022-11-30T18:54:05.679Z,94064.63
2022-11-30T18:56:34.895Z,94067.22
2022-11-30T18:59:07.145Z,94075.44
2022-11-30T19:01:34.968Z,94071.97
2022-11-30T19:04:05.427Z,94048.31
2022-11-30T19:06:40.008Z,94076.66
2022-11-30T19:09:19.978Z,94072.00
2022-11-30T19:11:46.530Z,94044.59
2022-11-30T19:14:20.106Z,94063.84
2022-11-30T19:16:47.903Z,94064.06
2022-11-30T19:19:15.098Z,94081.47
2022-11-30T19:21:47.725Z,94077.06
2022-11-30T19:24:16.311Z,94072.00
2022-11-30T19:26:42.832Z,94050.47
2022-11-30T19:29:12.198Z,94074.06
2022-11-30T19:31:39.673Z,94067.03
2022-11-30T19:34:12.595Z,94067.13
2022-11-30T19:36:49.149Z,94053.16
2022-11-30T19:39:20.755Z,94065.66
2022-11-30T19:41:49.294Z,94055.28
2022-11-30T19:44:22.769Z,94056.34
2022-11-30T19:46:49.271Z,94055.66
2022-11-30T19:49:15.696Z,94063.59
2022-11-30T19:52:00.548Z,94065.38
2022-11-30T19:54:27.179Z,94050.97
2022-11-30T19:56:59.060Z,94058.53
2022-11-30T19:59:29.627Z,94075.03
2022-11-30T20:02:01.374Z,94045.00
2022-11-30T20:04:31.044Z,94099.13
2022-11-30T20:07:00.515Z,94099.97
2022-11-30T20:09:37.016Z,94068.75
2022-11-30T20:12:03.577Z,94057.13
2022-11-30T20:14:30.043Z,94073.94
2022-11-30T20:16:56.479Z,94073.63
2022-11-30T20:19:30.016Z,94075.84
2022-11-30T20:22:29.448Z,94091.88
2022-11-30T20:24:56.269Z,94084.91
2022-11-30T20:27:24.864Z,94076.38
2022-11-30T20:29:51.939Z,94067.66
2022-11-30T20:32:19.329Z,94089.09
2022-11-30T20:34:46.292Z,94088.53
2022-11-30T20:37:13.746Z,94052.81
2022-11-30T20:39:56.831Z,94055.94
2022-11-30T20:42:23.319Z,94059.56
2022-11-30T20:44:55.727Z,93995.56
2022-11-30T20:47:22.201Z,94008.19
2022-11-30T20:49:51.779Z,94070.97
2022-11-30T20:52:18.180Z,94070.97
2022-11-30T20:54:48.952Z,94064.16
2022-11-30T20:57:15.618Z,94065.81
2022-11-30T21:00:02.187Z,94076.31
2022-11-30T21:02:28.700Z,94070.38
2022-11-30T21:04:55.119Z,94058.06
2022-11-30T21:07:21.627Z,94073.91
2022-11-30T21:09:49.179Z,94060.38
2022-11-30T21:12:15.613Z,94078.78
2022-11-30T21:14:49.581Z,94083.91
2022-11-30T21:17:16.264Z,94083.66
2022-11-30T21:19:42.684Z,94058.34
2022-11-30T21:22:19.270Z,94048.97
2022-11-30T21:24:46.017Z,94059.19
2022-11-30T21:27:12.689Z,94053.28
2022-11-30T21:29:39.171Z,94058.16
2022-11-30T21:32:05.676Z,94025.13
2022-11-30T21:34:33.764Z,94045.75
2022-11-30T21:37:00.285Z,94046.50
2022-11-30T21:39:26.869Z,94059.16
2022-11-30T21:41:53.280Z,94042.19
2022-11-30T21:44:20.090Z,94042.19
2022-11-30T21:46:47.248Z,94055.22
2022-11-30T21:49:15.274Z,94082.22
2022-11-30T21:51:46.899Z,94042.97
2022-11-30T21:54:13.634Z,94047.84
2022-11-30T21:56:41.077Z,94080.81
2022-11-30T21:59:08.964Z,94083.56
2022-11-30T22:01:41.597Z,94086.91
2022-11-30T22:04:30.605Z,94082.50
2022-11-30T22:06:57.047Z,94077.97
2022-11-30T22:09:25.544Z,94084.50
2022-11-30T22:11:51.989Z,94074.38
2022-11-30T22:14:24.259Z,94097.25
2022-11-30T22:16:52.687Z,94081.25
2022-11-30T22:19:19.345Z,94078.28
2022-11-30T22:21:52.643Z,94074.69
2022-11-30T22:24:22.316Z,94078.00
2022-11-30T22:26:55.848Z,94063.78
2022-11-30T22:29:24.547Z,94074.94
2022-11-30T22:31:53.552Z,94093.03
2022-11-30T22:34:20.943Z,94073.44
2022-11-30T22:36:48.208Z,94093.53
2022-11-30T22:39:17.184Z,94095.19
2022-11-30T22:41:45.268Z,94094.06
2022-11-30T22:44:16.624Z,94092.31
2022-11-30T22:46:46.433Z,94073.00
2022-11-30T22:49:20.219Z,94099.69
2022-11-30T22:52:12.111Z,94097.91
2022-11-30T22:54:38.579Z,94066.47
2022-11-30T22:57:05.040Z,94067.84
2022-11-30T22:59:31.520Z,94075.69
2022-11-30T23:01:57.955Z,94070.81
2022-11-30T23:04:24.423Z,94065.13
2022-11-30T23:06:51.452Z,94085.69
2022-11-30T23:09:21.285Z,94077.31
2022-11-30T23:11:48.658Z,94085.97
2022-11-30T23:14:16.250Z,94061.34
2022-11-30T23:16:43.343Z,94078.06
2022-11-30T23:19:11.651Z,94060.22
2022-11-30T23:21:42.126Z,94003.91
2022-11-30T23:24:13.289Z,93993.88
2022-11-30T23:26:40.887Z,94080.63
2022-11-30T23:29:10.417Z,94018.09
2022-11-30T23:31:38.912Z,94046.66
2022-11-30T23:34:39.687Z,94018.97
2022-11-30T23:37:06.154Z,94032.81
2022-11-30T23:39:48.311Z,94075.59
2022-11-30T23:42:14.912Z,94067.19
2022-11-30T23:44:41.312Z,94031.75
2022-11-30T23:47:07.913Z,94062.59
2022-11-30T23:49:34.379Z,94065.88
2022-11-30T23:52:00.897Z,94052.13
2022-11-30T23:54:29.383Z,94037.44
2022-11-30T23:56:55.821Z,94036.56
2022-11-30T23:59:22.261Z,94049.81
